Observation data for Dora on 08/20/2019      Previous  Date       Current Mesonet Observations  Soil Data  Daily Summary Page  Observations in Plain Language
KDR1 200500Z 11003KT 25/10 A3015 RMK A01 T02450096  RH  040%=      5-min Rain = 0
KDR1 200505Z 11003KT 24/10 A3015 RMK A01 T02440095  RH  040%=      5-min Rain = 0
KDR1 200510Z 10003KT 24/10 A3015 RMK A01 T02440095  RH  040%=      5-min Rain = 0
KDR1 200515Z 10003KT 25/09 A3015 RMK A01 T02480090  RH  038%=      5-min Rain = 0
KDR1 200520Z 11003KT 25/09 A3015 RMK A01 T02500090  RH  037%=      5-min Rain = 0
KDR1 200525Z 12004KT 25/10 A3015 RMK A01 T02450095  RH  040%=      5-min Rain = 0
KDR1 200530Z 13004KT 24/10 A3015 RMK A01 T02400096  RH  041%=      5-min Rain = 0
KDR1 200535Z 13003KT 24/10 A3015 RMK A01 T02390097  RH  042%=      5-min Rain = 0
KDR1 200540Z 14004KT 24/10 A3015 RMK A01 T02400099  RH  042%=      5-min Rain = 0
KDR1 200545Z 14004KT 24/10 A3014 RMK A01 T02400101  RH  043%=      5-min Rain = 0
KDR1 200550Z 15004KT 24/10 A3014 RMK A01 T02400101  RH  043%=      5-min Rain = 0
KDR1 200555Z 15003KT 24/10 A3014 RMK A01 T02420099  RH  042%=      5-min Rain = 0
KDR1 200600Z 17005KT 25/10 A3014 RMK A01 T02450099  RH  041%=      5-min Rain = 0
KDR1 200605Z 16005KT 25/10 A3014 RMK A01 T02480096  RH  039%=      5-min Rain = 0
KDR1 200610Z 16005KT 25/10 A3014 RMK A01 T02500096  RH  039%=      5-min Rain = 0
KDR1 200615Z 16006KT 25/10 A3014 RMK A01 T02500098  RH  040%=      5-min Rain = 0
KDR1 200620Z 16007KT 25/10 A3014 RMK A01 T02510097  RH  039%=      5-min Rain = 0
KDR1 200625Z 16008KT 26/10 A3014 RMK A01 T02590096  RH  037%=      5-min Rain = 0
KDR1 200630Z 16009KT 26/10 A3014 RMK A01 T02570097  RH  038%=      5-min Rain = 0
KDR1 200635Z 17008KT 26/10 A3014 RMK A01 T02570095  RH  037%=      5-min Rain = 0
KDR1 200640Z 17008KT 26/10 A3014 RMK A01 T02560096  RH  037%=      5-min Rain = 0
KDR1 200645Z 18009KT 26/10 A3014 RMK A01 T02620095  RH  036%=      5-min Rain = 0
KDR1 200650Z 18009KT 27/09 A3014 RMK A01 T02680093  RH  034%=      5-min Rain = 0
KDR1 200655Z 18010KT 27/09 A3014 RMK A01 T02660094  RH  035%=      5-min Rain = 0
KDR1 200700Z 18011KT 27/10 A3014 RMK A01 T02660098  RH  036%=      5-min Rain = 0
KDR1 200705Z 18011KT 26/11 A3014 RMK A01 T02620106  RH  039%=      5-min Rain = 0
KDR1 200710Z 19013KT 26/11 A3014 RMK A01 T02600108  RH  040%=      5-min Rain = 0
KDR1 200715Z 19013KT 26/11 A3014 RMK A01 T02620105  RH  039%=      5-min Rain = 0
KDR1 200720Z 19011KT 27/10 A3014 RMK A01 T02650104  RH  038%=      5-min Rain = 0
KDR1 200725Z 18012KT 27/10 A3014 RMK A01 T02660104  RH  037%=      5-min Rain = 0
KDR1 200730Z 18012KT 27/10 A3014 RMK A01 T02650104  RH  038%=      5-min Rain = 0
KDR1 200735Z 19012KT 27/11 A3014 RMK A01 T02650105  RH  038%=      5-min Rain = 0
KDR1 200740Z 19012KT 26/11 A3014 RMK A01 T02620107  RH  039%=      5-min Rain = 0
KDR1 200745Z 19012KT 26/11 A3014 RMK A01 T02600108  RH  040%=      5-min Rain = 0
KDR1 200750Z 19011KT 26/11 A3014 RMK A01 T02600108  RH  040%=      5-min Rain = 0
KDR1 200755Z 19011KT 26/11 A3014 RMK A01 T02590108  RH  040%=      5-min Rain = 0
KDR1 200800Z 19011KT 26/11 A3014 RMK A01 T02580108  RH  040%=      5-min Rain = 0
KDR1 200805Z 20011KT 26/11 A3014 RMK A01 T02590109  RH  040%=      5-min Rain = 0
KDR1 200810Z 20011KT 26/11 A3014 RMK A01 T02580109  RH  041%=      5-min Rain = 0
KDR1 200815Z 20011KT 26/11 A3014 RMK A01 T02590110  RH  041%=      5-min Rain = 0
KDR1 200820Z 20011KT 26/11 A3014 RMK A01 T02590110  RH  041%=      5-min Rain = 0
KDR1 200825Z 20011KT 26/11 A3014 RMK A01 T02600109  RH  040%=      5-min Rain = 0
KDR1 200830Z 20010KT 26/11 A3014 RMK A01 T02590110  RH  041%=      5-min Rain = 0
KDR1 200835Z 20010KT 26/11 A3014 RMK A01 T02580111  RH  041%=      5-min Rain = 0
KDR1 200840Z 20011KT 26/11 A3014 RMK A01 T02580111  RH  041%=      5-min Rain = 0
KDR1 200845Z 20011KT 26/11 A3014 RMK A01 T02570112  RH  042%=      5-min Rain = 0
KDR1 200850Z 20010KT 26/11 A3015 RMK A01 T02570112  RH  042%=      5-min Rain = 0
KDR1 200855Z 20010KT 26/11 A3015 RMK A01 T02560113  RH  042%=      5-min Rain = 0
KDR1 200900Z 19011KT 26/11 A3014 RMK A01 T02550113  RH  043%=      5-min Rain = 0
KDR1 200905Z 19011KT 25/11 A3015 RMK A01 T02540114  RH  043%=      5-min Rain = 0
KDR1 200910Z 19011KT 25/11 A3015 RMK A01 T02540114  RH  043%=      5-min Rain = 0
KDR1 200915Z 19011KT 25/12 A3015 RMK A01 T02520115  RH  044%=      5-min Rain = 0
KDR1 200920Z 20010KT 25/12 A3015 RMK A01 T02510116  RH  044%=      5-min Rain = 0
KDR1 200925Z 20008KT 25/12 A3015 RMK A01 T02500116  RH  045%=      5-min Rain = 0
KDR1 200930Z 20009KT 25/12 A3015 RMK A01 T02490117  RH  045%=      5-min Rain = 0
KDR1 200935Z 20008KT 25/12 A3015 RMK A01 T02490117  RH  045%=      5-min Rain = 0
KDR1 200940Z 21008KT 25/12 A3015 RMK A01 T02470118  RH  046%=      5-min Rain = 0
KDR1 200945Z 22008G13KT 25/12 A3015 RMK A01 T02460118  RH  046%=      5-min Rain = 0
KDR1 200950Z 22009KT 25/11 A3015 RMK A01 T02530112  RH  043%=      5-min Rain = 0
KDR1 200955Z 18009G15KT 26/11 A3015 RMK A01 T02550112  RH  042%=      5-min Rain = 0
KDR1 201000Z 17006KT 25/11 A3015 RMK A01 T02520113  RH  043%=      5-min Rain = 0
KDR1 201005Z 20010G17KT 26/11 A3015 RMK A01 T02550109  RH  041%=      5-min Rain = 0
KDR1 201010Z 20011KT 26/11 A3015 RMK A01 T02590107  RH  040%=      5-min Rain = 0
KDR1 201015Z 20014G19KT 26/11 A3015 RMK A01 T02590107  RH  040%=      5-min Rain = 0
KDR1 201020Z 19013KT 26/11 A3016 RMK A01 T02570110  RH  041%=      5-min Rain = 0
KDR1 201025Z 19012G17KT 25/12 A3016 RMK A01 T02480119  RH  046%=      5-min Rain = 0
KDR1 201030Z 19010G15KT 24/12 A3016 RMK A01 T02440120  RH  048%=      5-min Rain = 0
KDR1 201035Z 19009KT 24/12 A3016 RMK A01 T02440117  RH  047%=      5-min Rain = 0
KDR1 201040Z 19008KT 24/12 A3016 RMK A01 T02440116  RH  046%=      5-min Rain = 0
KDR1 201045Z 18009KT 24/12 A3016 RMK A01 T02430116  RH  047%=      5-min Rain = 0
KDR1 201050Z 18010KT 24/11 A3016 RMK A01 T02440114  RH  046%=      5-min Rain = 0
KDR1 201055Z 18010KT 25/11 A3016 RMK A01 T02460114  RH  045%=      5-min Rain = 0
KDR1 201100Z 18009KT 24/12 A3016 RMK A01 T02430115  RH  046%=      5-min Rain = 0
KDR1 201105Z 18009KT 24/12 A3016 RMK A01 T02430115  RH  046%=      5-min Rain = 0
KDR1 201110Z 18009KT 24/12 A3016 RMK A01 T02430115  RH  046%=      5-min Rain = 0
KDR1 201115Z 17010KT 24/12 A3016 RMK A01 T02420115  RH  046%=      5-min Rain = 0
KDR1 201120Z 17010KT 24/12 A3016 RMK A01 T02420116  RH  047%=      5-min Rain = 0
KDR1 201125Z 17011KT 25/12 A3016 RMK A01 T02450117  RH  046%=      5-min Rain = 0
KDR1 201130Z 18010KT 24/12 A3016 RMK A01 T02440118  RH  047%=      5-min Rain = 0
KDR1 201135Z 18010KT 24/12 A3016 RMK A01 T02420118  RH  047%=      5-min Rain = 0
KDR1 201140Z 17009KT 24/12 A3016 RMK A01 T02400119  RH  048%=      5-min Rain = 0
KDR1 201145Z 17009KT 24/12 A3016 RMK A01 T02390119  RH  049%=      5-min Rain = 0
KDR1 201150Z 17009KT 24/12 A3016 RMK A01 T02380120  RH  049%=      5-min Rain = 0
KDR1 201155Z 16008KT 24/12 A3016 RMK A01 T02370120  RH  050%=      5-min Rain = 0
KDR1 201200Z 17008KT 24/12 A3016 RMK A01 T02350120  RH  050%=      5-min Rain = 0
KDR1 201205Z 17009KT 23/12 A3016 RMK A01 T02340121  RH  051%=      5-min Rain = 0
KDR1 201210Z 18009KT 24/12 A3016 RMK A01 T02350122  RH  051%=      5-min Rain = 0
KDR1 201215Z 18010KT 24/12 A3016 RMK A01 T02350122  RH  051%=      5-min Rain = 0
KDR1 201220Z 18010KT 23/12 A3017 RMK A01 T02340123  RH  052%=      5-min Rain = 0
KDR1 201225Z 19011KT 24/12 A3017 RMK A01 T02360123  RH  051%=      5-min Rain = 0
KDR1 201230Z 19011KT 23/12 A3017 RMK A01 T02340124  RH  052%=      5-min Rain = 0
KDR1 201235Z 19011KT 23/12 A3017 RMK A01 T02330124  RH  053%=      5-min Rain = 0
KDR1 201240Z 19011KT 23/13 A3017 RMK A01 T02320125  RH  053%=      5-min Rain = 0
KDR1 201245Z 19011KT 23/13 A3017 RMK A01 T02320126  RH  053%=      5-min Rain = 0
KDR1 201250Z 19012KT 23/13 A3017 RMK A01 T02320127  RH  054%=      5-min Rain = 0
KDR1 201255Z 19011KT 23/13 A3018 RMK A01 T02320128  RH  054%=      5-min Rain = 0
KDR1 201300Z 19011KT 23/13 A3018 RMK A01 T02330129  RH  054%=      5-min Rain = 0
KDR1 201305Z 19011KT 23/13 A3018 RMK A01 T02330130  RH  054%=      5-min Rain = 0
KDR1 201310Z 19012KT 23/13 A3018 RMK A01 T02330131  RH  055%=      5-min Rain = 0
KDR1 201315Z 19011KT 23/13 A3018 RMK A01 T02340131  RH  055%=      5-min Rain = 0
KDR1 201320Z 19010KT 23/13 A3018 RMK A01 T02340132  RH  055%=      5-min Rain = 0
KDR1 201325Z 19010KT 23/13 A3018 RMK A01 T02340133  RH  055%=      5-min Rain = 0
KDR1 201330Z 19011KT 24/13 A3018 RMK A01 T02350134  RH  055%=      5-min Rain = 0
KDR1 201335Z 19011KT 24/13 A3019 RMK A01 T02360134  RH  055%=      5-min Rain = 0
KDR1 201340Z 19012KT 24/14 A3019 RMK A01 T02370135  RH  055%=      5-min Rain = 0
KDR1 201345Z 19012KT 24/14 A3019 RMK A01 T02380136  RH  055%=      5-min Rain = 0
KDR1 201350Z 20011KT 24/14 A3019 RMK A01 T02380136  RH  055%=      5-min Rain = 0
KDR1 201355Z 20013KT 24/14 A3019 RMK A01 T02390137  RH  055%=      5-min Rain = 0
KDR1 201400Z 20012G17KT 24/14 A3019 RMK A01 T02400138  RH  055%=      5-min Rain = 0
KDR1 201405Z 20011KT 24/14 A3019 RMK A01 T02410139  RH  055%=      5-min Rain = 0
KDR1 201410Z 20013KT 24/14 A3019 RMK A01 T02410139  RH  055%=      5-min Rain = 0
KDR1 201415Z 20012KT 24/14 A3019 RMK A01 T02420140  RH  055%=      5-min Rain = 0
KDR1 201420Z 20011KT 24/14 A3019 RMK A01 T02430140  RH  055%=      5-min Rain = 0
KDR1 201425Z 20012KT 24/14 A3019 RMK A01 T02440141  RH  055%=      5-min Rain = 0
KDR1 201430Z 19013G18KT 25/14 A3019 RMK A01 T02450142  RH  055%=      5-min Rain = 0
KDR1 201435Z 20013KT 25/14 A3019 RMK A01 T02460142  RH  055%=      5-min Rain = 0
KDR1 201440Z 20013KT 25/14 A3019 RMK A01 T02480143  RH  054%=      5-min Rain = 0
KDR1 201445Z 20013KT 25/14 A3019 RMK A01 T02500143  RH  054%=      5-min Rain = 0
KDR1 201450Z 20013KT 25/14 A3019 RMK A01 T02520144  RH  053%=      5-min Rain = 0
KDR1 201455Z 20012G17KT 25/14 A3019 RMK A01 T02540144  RH  053%=      5-min Rain = 0
KDR1 201500Z 20013G18KT 26/14 A3019 RMK A01 T02560144  RH  052%=      5-min Rain = 0
KDR1 201505Z 20013KT 26/14 A302 RMK A01 T02570143  RH  051%=      5-min Rain = 0
KDR1 201510Z 20012KT 26/14 A302 RMK A01 T02580144  RH  051%=      5-min Rain = 0
KDR1 201515Z 20012KT 26/14 A302 RMK A01 T02590144  RH  051%=      5-min Rain = 0
KDR1 201520Z 20013KT 26/14 A302 RMK A01 T02600144  RH  051%=      5-min Rain = 0
KDR1 201525Z 20014KT 26/14 A302 RMK A01 T02600143  RH  050%=      5-min Rain = 0
KDR1 201530Z 20014KT 26/14 A302 RMK A01 T02620144  RH  050%=      5-min Rain = 0
KDR1 201535Z 20013KT 27/15 A302 RMK A01 T02650145  RH  050%=      5-min Rain = 0
KDR1 201540Z 20012G17KT 27/15 A302 RMK A01 T02660145  RH  049%=      5-min Rain = 0
KDR1 201545Z 19013KT 27/15 A302 RMK A01 T02710145  RH  048%=      5-min Rain = 0
KDR1 201550Z 19014KT 27/14 A302 RMK A01 T02730144  RH  047%=      5-min Rain = 0
KDR1 201555Z 20015KT 27/14 A302 RMK A01 T02730140  RH  046%=      5-min Rain = 0
KDR1 201600Z 19014KT 28/14 A302 RMK A01 T02750140  RH  045%=      5-min Rain = 0
KDR1 201605Z 19013KT 28/14 A302 RMK A01 T02750141  RH  046%=      5-min Rain = 0
KDR1 201610Z 19013KT 28/14 A302 RMK A01 T02780140  RH  045%=      5-min Rain = 0
KDR1 201615Z 19012KT 28/14 A302 RMK A01 T02780140  RH  044%=      5-min Rain = 0
KDR1 201620Z 20011G16KT 28/14 A302 RMK A01 T02800139  RH  044%=      5-min Rain = 0
KDR1 201625Z 20011KT 28/14 A302 RMK A01 T02790138  RH  044%=      5-min Rain = 0
KDR1 201630Z 20011KT 28/14 A302 RMK A01 T02820140  RH  044%=      5-min Rain = 0
KDR1 201635Z 19011KT 29/14 A302 RMK A01 T02860139  RH  042%=      5-min Rain = 0
KDR1 201640Z 19011KT 29/14 A302 RMK A01 T02890139  RH  042%=      5-min Rain = 0
KDR1 201645Z 19010G16KT 30/14 A302 RMK A01 T02960139  RH  040%=      5-min Rain = 0
KDR1 201650Z 20009G14KT 29/14 A302 RMK A01 T02930138  RH  040%=      5-min Rain = 0
KDR1 201655Z 19011G17KT 30/13 A302 RMK A01 T02950133  RH  039%=      5-min Rain = 0
KDR1 201700Z 19012G17KT 30/13 A302 RMK A01 T02960127  RH  037%=      5-min Rain = 0
KDR1 201705Z 19011G17KT 31/13 A302 RMK A01 T03060128  RH  035%=      5-min Rain = 0
KDR1 201710Z 18011G17KT 32/13 A302 RMK A01 T03160125  RH  032%=      5-min Rain = 0
KDR1 201715Z 19013G19KT 32/12 A302 RMK A01 T03160124  RH  032%=      5-min Rain = 0
KDR1 201720Z 19012G18KT 32/12 A302 RMK A01 T03200122  RH  031%=      5-min Rain = 0
KDR1 201725Z 18012G18KT 32/12 A302 RMK A01 T03200116  RH  030%=      5-min Rain = 0
KDR1 201730Z 17012G18KT 33/11 A302 RMK A01 T03270114  RH  028%=      5-min Rain = 0
KDR1 201735Z 17013G18KT 33/11 A302 RMK A01 T03270111  RH  028%=      5-min Rain = 0
KDR1 201740Z 17012G17KT 33/11 A302 RMK A01 T03260113  RH  028%=      5-min Rain = 0
KDR1 201745Z 17012G19KT 32/11 A302 RMK A01 T03200112  RH  029%=      5-min Rain = 0
KDR1 201750Z 17012KT 32/10 A302 RMK A01 T03160101  RH  027%=      5-min Rain = 0
KDR1 201755Z 18010G15KT 32/10 A302 RMK A01 T03180104  RH  028%=      5-min Rain = 0
KDR1 201800Z 18009KT 32/10 A302 RMK A01 T03170104  RH  028%=      5-min Rain = 0
KDR1 201805Z 19009G15KT 33/11 A302 RMK A01 T03250113  RH  028%=      5-min Rain = 0
KDR1 201810Z 19009KT 33/10 A3019 RMK A01 T03300104  RH  026%=      5-min Rain = 0
KDR1 201815Z 18008G13KT 33/10 A3019 RMK A01 T03330104  RH  025%=      5-min Rain = 0
KDR1 201820Z 20009G18KT 33/10 A3019 RMK A01 T03290102  RH  026%=      5-min Rain = 0
KDR1 201825Z 21009G15KT 33/10 A3019 RMK A01 T03290097  RH  025%=      5-min Rain = 0
KDR1 201830Z 21009G15KT 33/09 A3019 RMK A01 T03340092  RH  023%=      5-min Rain = 0
KDR1 201835Z 21009G16KT 33/10 A3018 RMK A01 T03340095  RH  024%=      5-min Rain = 0
KDR1 201840Z 22009KT 33/09 A3018 RMK A01 T03340089  RH  023%=      5-min Rain = 0
KDR1 201845Z 21011G17KT 34/09 A3018 RMK A01 T03360089  RH  023%=      5-min Rain = 0
KDR1 201850Z 18011G16KT 34/08 A3018 RMK A01 T03390084  RH  021%=      5-min Rain = 0
KDR1 201855Z 19006G12KT 34/09 A3018 RMK A01 T03390093  RH  023%=      5-min Rain = 0
KDR1 201900Z 21009G14KT 34/09 A3018 RMK A01 T03430088  RH  021%=      5-min Rain = 0
KDR1 201905Z 19007G13KT 35/09 A3018 RMK A01 T03460093  RH  022%=      5-min Rain = 0
KDR1 201910Z 22009G15KT 35/08 A3017 RMK A01 T03450079  RH  020%=      5-min Rain = 0
KDR1 201915Z 20009G14KT 35/08 A3017 RMK A01 T03500076  RH  019%=      5-min Rain = 0
KDR1 201920Z 20007G14KT 35/07 A3017 RMK A01 T03490073  RH  019%=      5-min Rain = 0
KDR1 201925Z 20009G15KT 35/09 A3017 RMK A01 T03530092  RH  021%=      5-min Rain = 0
KDR1 201930Z 16008G14KT 35/08 A3017 RMK A01 T03520079  RH  019%=      5-min Rain = 0
KDR1 201935Z 17008G14KT 36/08 A3017 RMK A01 T03560079  RH  019%=      5-min Rain = 0
KDR1 201940Z 19008G14KT 35/09 A3016 RMK A01 T03530086  RH  020%=      5-min Rain = 0
KDR1 201945Z 20010G15KT 35/08 A3016 RMK A01 T03530082  RH  019%=      5-min Rain = 0
KDR1 201950Z 17011G19KT 36/06 A3016 RMK A01 T03550064  RH  017%=      5-min Rain = 0
KDR1 201955Z 14009KT 35/07 A3016 RMK A01 T03520069  RH  018%=      5-min Rain = 0
KDR1 202000Z 16010G17KT 36/06 A3015 RMK A01 T03580063  RH  017%=      5-min Rain = 0
KDR1 202005Z 16012G17KT 36/07 A3015 RMK A01 T03620070  RH  017%=      5-min Rain = 0
KDR1 202010Z 15009G15KT 36/07 A3015 RMK A01 T03590068  RH  017%=      5-min Rain = 0
KDR1 202015Z 16013G19KT 36/06 A3015 RMK A01 T03620062  RH  016%=      5-min Rain = 0
KDR1 202020Z 17012G17KT 36/07 A3015 RMK A01 T03630068  RH  017%=      5-min Rain = 0
KDR1 202025Z 18007G13KT 36/07 A3014 RMK A01 T03580073  RH  018%=      5-min Rain = 0
KDR1 202030Z 15013G18KT 36/06 A3014 RMK A01 T03630056  RH  015%=      5-min Rain = 0
KDR1 202035Z 15010G15KT 37/05 A3014 RMK A01 T03660047  RH  014%=      5-min Rain = 0
KDR1 202040Z 16012G18KT 37/04 A3014 RMK A01 T03670040  RH  013%=      5-min Rain = 0
KDR1 202045Z 18012G18KT 36/05 A3014 RMK A01 T03590049  RH  015%=      5-min Rain = 0
KDR1 202050Z 15011KT 36/05 A3014 RMK A01 T03600045  RH  015%=      5-min Rain = 0
KDR1 202055Z 19010G16KT 37/05 A3013 RMK A01 T03650048  RH  014%=      5-min Rain = 0
KDR1 202100Z 17011G16KT 36/05 A3013 RMK A01 T03620052  RH  015%=      5-min Rain = 0
KDR1 202105Z 18010G15KT 36/06 A3013 RMK A01 T03640055  RH  015%=      5-min Rain = 0
KDR1 202110Z 18010KT 36/05 A3012 RMK A01 T03590052  RH  015%=      5-min Rain = 0
KDR1 202115Z 17007G13KT 36/06 A3012 RMK A01 T03610056  RH  016%=      5-min Rain = 0
KDR1 202120Z 19011G19KT 36/06 A3012 RMK A01 T03630063  RH  016%=      5-min Rain = 0
KDR1 202125Z 18012G18KT 37/06 A3011 RMK A01 T03670060  RH  016%=      5-min Rain = 0
KDR1 202130Z 17007G14KT 36/06 A3011 RMK A01 T03610060  RH  016%=      5-min Rain = 0
KDR1 202135Z 19011G25KT 37/05 A3011 RMK A01 T03700051  RH  014%=      5-min Rain = 0
KDR1 202140Z 20008G13KT 37/05 A3011 RMK A01 T03650054  RH  015%=      5-min Rain = 0
KDR1 202145Z 20008G16KT 36/05 A3011 RMK A01 T03640051  RH  015%=      5-min Rain = 0
KDR1 202150Z 18007G15KT 37/05 A3011 RMK A01 T03670047  RH  014%=      5-min Rain = 0
KDR1 202155Z 19009KT 37/05 A3011 RMK A01 T03730052  RH  014%=      5-min Rain = 0
KDR1 202200Z 18011G16KT 36/05 A301 RMK A01 T03600049  RH  015%=      5-min Rain = 0
KDR1 202205Z 19013G18KT 37/05 A301 RMK A01 T03650045  RH  014%=      5-min Rain = 0
KDR1 202210Z 19015G21KT 36/04 A301 RMK A01 T03630044  RH  014%=      5-min Rain = 0
KDR1 202215Z 19013G18KT 36/04 A301 RMK A01 T03620044  RH  014%=      5-min Rain = 0
KDR1 202220Z 20015KT 36/04 A301 RMK A01 T03640043  RH  014%=      5-min Rain = 0
KDR1 202225Z 21012G20KT 36/05 A301 RMK A01 T03550046  RH  015%=      5-min Rain = 0
KDR1 202230Z 19010G15KT 36/05 A301 RMK A01 T03580050  RH  015%=      5-min Rain = 0
KDR1 202235Z 17013G18KT 36/05 A301 RMK A01 T03610049  RH  015%=      5-min Rain = 0
KDR1 202240Z 18011G17KT 36/05 A301 RMK A01 T03550047  RH  015%=      5-min Rain = 0
KDR1 202245Z 18010G15KT 35/05 A301 RMK A01 T03540047  RH  015%=      5-min Rain = 0
KDR1 202250Z 17012KT 36/04 A301 RMK A01 T03590044  RH  015%=      5-min Rain = 0
KDR1 202255Z 22011KT 35/07 A301 RMK A01 T03480067  RH  018%=      5-min Rain = 0
KDR1 202300Z 23007G12KT 35/06 A301 RMK A01 T03450063  RH  018%=      5-min Rain = 0
KDR1 202305Z 22011G16KT 34/06 A301 RMK A01 T03440058  RH  017%=      5-min Rain = 0
KDR1 202310Z 22008KT 34/06 A301 RMK A01 T03430056  RH  017%=      5-min Rain = 0
KDR1 202315Z 21010KT 34/06 A301 RMK A01 T03400056  RH  018%=      5-min Rain = 0
KDR1 202320Z 18010KT 34/05 A3011 RMK A01 T03430053  RH  017%=      5-min Rain = 0
KDR1 202325Z 18010KT 34/05 A3011 RMK A01 T03440045  RH  016%=      5-min Rain = 0
KDR1 202330Z 18008KT 34/05 A3011 RMK A01 T03420047  RH  016%=      5-min Rain = 0
KDR1 202335Z 16009KT 35/04 A3011 RMK A01 T03460044  RH  016%=      5-min Rain = 0
KDR1 202340Z 14010KT 36/05 A301 RMK A01 T03550052  RH  016%=      5-min Rain = 0
KDR1 202345Z 15011KT 35/05 A301 RMK A01 T03470052  RH  016%=      5-min Rain = 0
KDR1 202350Z 14012KT 34/06 A3011 RMK A01 T03420056  RH  017%=      5-min Rain = 0
KDR1 202355Z 14013KT 34/06 A3011 RMK A01 T03390060  RH  018%=      5-min Rain = 0
KDR1 210000Z 13013KT 34/06 A3011 RMK A01 T03420062  RH  018%=      5-min Rain = 0
KDR1 210005Z 13014KT 34/06 A3011 RMK A01 T03400062  RH  018%=      5-min Rain = 0
KDR1 210010Z 14013G18KT 34/06 A3011 RMK A01 T03400062  RH  018%=      5-min Rain = 0
KDR1 210015Z 13011KT 34/06 A3011 RMK A01 T03390062  RH  018%=      5-min Rain = 0
KDR1 210020Z 14013KT 34/06 A3011 RMK A01 T03350062  RH  019%=      5-min Rain = 0
KDR1 210025Z 15012KT 33/06 A3011 RMK A01 T03320063  RH  019%=      5-min Rain = 0
KDR1 210030Z 14012KT 33/06 A3011 RMK A01 T03300064  RH  020%=      5-min Rain = 0
KDR1 210035Z 15011KT 33/06 A3011 RMK A01 T03290061  RH  019%=      5-min Rain = 0
KDR1 210040Z 16010KT 33/06 A3011 RMK A01 T03270060  RH  019%=      5-min Rain = 0
KDR1 210045Z 15010KT 32/06 A3011 RMK A01 T03240063  RH  020%=      5-min Rain = 0
KDR1 210050Z 15010G15KT 32/07 A3011 RMK A01 T03210072  RH  022%=      5-min Rain = 0
KDR1 210055Z 15011KT 32/07 A3011 RMK A01 T03180073  RH  022%=      5-min Rain = 0
KDR1 210100Z 15010KT 32/07 A3011 RMK A01 T03180072  RH  022%=      5-min Rain = 0
KDR1 210105Z 16011KT 32/07 A3011 RMK A01 T03160072  RH  022%=      5-min Rain = 0
KDR1 210110Z 16012KT 32/07 A3011 RMK A01 T03150072  RH  023%=      5-min Rain = 0
KDR1 210115Z 15012KT 31/07 A3011 RMK A01 T03140070  RH  022%=      5-min Rain = 0
KDR1 210120Z 15011KT 31/07 A3011 RMK A01 T03120069  RH  022%=      5-min Rain = 0
KDR1 210125Z 15011KT 31/07 A3012 RMK A01 T03090069  RH  023%=      5-min Rain = 0
KDR1 210130Z 15011KT 31/07 A3012 RMK A01 T03070069  RH  023%=      5-min Rain = 0
KDR1 210135Z 15011KT 31/07 A3012 RMK A01 T03050071  RH  024%=      5-min Rain = 0
KDR1 210140Z 15009KT 30/07 A3012 RMK A01 T03020073  RH  024%=      5-min Rain = 0
KDR1 210145Z 15008KT 30/07 A3012 RMK A01 T02980074  RH  025%=      5-min Rain = 0
KDR1 210150Z 15009KT 30/08 A3012 RMK A01 T02950075  RH  026%=      5-min Rain = 0
KDR1 210155Z 16010KT 29/08 A3012 RMK A01 T02940076  RH  026%=      5-min Rain = 0
KDR1 210200Z 16010KT 29/08 A3012 RMK A01 T02930077  RH  027%=      5-min Rain = 0
KDR1 210205Z 16008G13KT 29/08 A3012 RMK A01 T02900077  RH  027%=      5-min Rain = 0
KDR1 210210Z 16010KT 29/08 A3012 RMK A01 T02890078  RH  027%=      5-min Rain = 0
KDR1 210215Z 16010G16KT 29/08 A3013 RMK A01 T02860078  RH  028%=      5-min Rain = 0
KDR1 210220Z 16010KT 29/08 A3013 RMK A01 T02880077  RH  027%=      5-min Rain = 0
KDR1 210225Z 16010KT 29/08 A3013 RMK A01 T02860077  RH  028%=      5-min Rain = 0
KDR1 210230Z 16010G15KT 29/08 A3013 RMK A01 T02860077  RH  028%=      5-min Rain = 0
KDR1 210235Z 16010KT 28/08 A3013 RMK A01 T02830078  RH  028%=      5-min Rain = 0
KDR1 210240Z 16009KT 28/08 A3013 RMK A01 T02810079  RH  029%=      5-min Rain = 0
KDR1 210245Z 16010KT 28/08 A3014 RMK A01 T02770081  RH  030%=      5-min Rain = 0
KDR1 210250Z 15011KT 28/08 A3014 RMK A01 T02780083  RH  030%=      5-min Rain = 0
KDR1 210255Z 15011KT 28/09 A3014 RMK A01 T02780085  RH  031%=      5-min Rain = 0
KDR1 210300Z 15011KT 28/09 A3014 RMK A01 T02760087  RH  031%=      5-min Rain = 0
KDR1 210305Z 15011KT 28/09 A3014 RMK A01 T02750089  RH  032%=      5-min Rain = 0
KDR1 210310Z 15011KT 28/09 A3014 RMK A01 T02760090  RH  032%=      5-min Rain = 0
KDR1 210315Z 15011KT 28/09 A3015 RMK A01 T02750091  RH  032%=      5-min Rain = 0
KDR1 210320Z 16010KT 27/09 A3015 RMK A01 T02740091  RH  033%=      5-min Rain = 0
KDR1 210325Z 16010KT 27/09 A3015 RMK A01 T02700092  RH  034%=      5-min Rain = 0
KDR1 210330Z 15011KT 27/09 A3015 RMK A01 T02720091  RH  033%=      5-min Rain = 0
KDR1 210335Z 16010KT 27/09 A3015 RMK A01 T02700091  RH  033%=      5-min Rain = 0
KDR1 210340Z 16010KT 27/09 A3015 RMK A01 T02690091  RH  034%=      5-min Rain = 0
KDR1 210345Z 16011KT 27/09 A3015 RMK A01 T02670090  RH  034%=      5-min Rain = 0
KDR1 210350Z 16010KT 26/09 A3015 RMK A01 T02620091  RH  035%=      5-min Rain = 0
KDR1 210355Z 16011G16KT 26/09 A3015 RMK A01 T02620090  RH  035%=      5-min Rain = 0
KDR1 210400Z 16010KT 26/09 A3015 RMK A01 T02570091  RH  036%=      5-min Rain = 0
KDR1 210405Z 16010KT 25/09 A3015 RMK A01 T02540090  RH  037%=      5-min Rain = 0
KDR1 210410Z 16009KT 25/09 A3015 RMK A01 T02510090  RH  037%=      5-min Rain = 0
KDR1 210415Z 16009KT 25/09 A3015 RMK A01 T02500089  RH  037%=      5-min Rain = 0
KDR1 210420Z 17009KT 25/09 A3015 RMK A01 T02490088  RH  037%=      5-min Rain = 0
KDR1 210425Z 17009KT 25/09 A3015 RMK A01 T02470088  RH  037%=      5-min Rain = 0
KDR1 210430Z 17009KT 25/09 A3016 RMK A01 T02480087  RH  037%=      5-min Rain = 0
KDR1 210435Z 17009KT 25/09 A3016 RMK A01 T02450086  RH  038%=      5-min Rain = 0
KDR1 210440Z 17010KT 24/09 A3016 RMK A01 T02440086  RH  038%=      5-min Rain = 0
KDR1 210445Z 17011KT 25/09 A3016 RMK A01 T02470086  RH  037%=      5-min Rain = 0
KDR1 210450Z 17010KT 25/09 A3016 RMK A01 T02450085  RH  037%=      5-min Rain = 0
KDR1 210455Z 17010KT 24/09 A3015 RMK A01 T02440085  RH  037%=      5-min Rain = 0

Page generated in 0.0094 seconds.